Time;durP1;ratioP1;P1;durP2;ratioP2;P2;SDS_P1;SDS_P2;PMS_P1;PMS_P2;Temp;Humidity;BMP_temperature;BMP_pressure;BME280_temperature;BME280_humidity;BME280_pressure;Samples;Min_cycle;Max_cycle;Signal;HPM_P1;HPM_P2
2022/06/10 00:02:18;;;;;;;1.07;0.90;;;11.90;99.90;;;;;;5128831;27;20714;-86
2022/06/10 00:04:45;;;;;;;0.87;0.87;;;11.90;99.90;;;;;;5128733;27;20650;-87
2022/06/10 00:07:12;;;;;;;1.00;1.00;;;12.00;99.90;;;;;;5127870;27;20611;-85
2022/06/10 00:09:39;;;;;;;0.67;0.67;;;12.10;99.90;;;;;;5128653;27;20692;-87
2022/06/10 00:12:09;;;;;;;1.60;1.50;;;12.00;99.90;;;;;;5129117;27;20629;-86
2022/06/10 00:14:37;;;;;;;1.20;1.10;;;12.00;99.90;;;;;;5128256;27;21184;-86
2022/06/10 00:17:04;;;;;;;1.27;1.17;;;12.10;99.90;;;;;;5128049;27;20704;-85
2022/06/10 00:19:33;;;;;;;1.07;1.00;;;11.90;99.90;;;;;;5128407;27;20617;-86
2022/06/10 00:22:01;;;;;;;0.90;0.90;;;12.00;99.90;;;;;;5129371;27;21013;-86
2022/06/10 00:24:29;;;;;;;1.63;1.17;;;11.90;99.90;;;;;;5128269;27;20673;-86
2022/06/10 00:26:56;;;;;;;1.27;1.17;;;11.80;99.90;;;;;;5127916;27;20627;-87
2022/06/10 00:29:26;;;;;;;0.97;0.97;;;11.90;99.90;;;;;;5128912;27;20725;-86
2022/06/10 00:31:54;;;;;;;1.53;1.10;;;12.00;99.90;;;;;;5128120;27;20683;-86
2022/06/10 00:34:22;;;;;;;1.00;0.90;;;11.90;99.90;;;;;;5127652;27;20731;-87
2022/06/10 00:36:50;;;;;;;0.93;0.93;;;11.90;99.90;;;;;;5127824;27;21006;-87
2022/06/10 00:39:19;;;;;;;1.00;1.00;;;11.90;99.90;;;;;;5128366;27;20651;-86
2022/06/10 00:41:46;;;;;;;0.93;0.93;;;11.80;99.90;;;;;;5128551;27;20711;-87
2022/06/10 00:44:38;;;;;;;1.60;1.10;;;12.00;99.90;;;;;;5127994;27;21287;-86
2022/06/10 00:47:15;;;;;;;1.53;1.17;;;12.00;99.90;;;;;;5126935;27;20699;-87
2022/06/10 00:49:47;;;;;;;1.23;1.13;;;11.90;99.90;;;;;;5129110;27;20610;-87
2022/06/10 00:52:23;;;;;;;1.77;1.57;;;11.80;99.90;;;;;;5107785;28;20596;-86
2022/06/10 00:54:52;;;;;;;1.73;1.40;;;11.70;99.90;;;;;;5108534;28;20610;-87
2022/06/10 00:57:22;;;;;;;0.80;0.80;;;11.70;99.90;;;;;;5115826;27;20730;-86
2022/06/10 00:59:55;;;;;;;1.47;1.37;;;11.70;99.90;;;;;;5127716;27;20655;-85
2022/06/10 01:02:25;;;;;;;2.53;1.67;;;11.80;99.90;;;;;;5107125;28;20622;-86
2022/06/10 01:04:55;;;;;;;4.73;1.77;;;11.80;99.90;;;;;;5113404;27;20622;-86
2022/06/10 01:07:27;;;;;;;1.27;1.10;;;11.80;99.90;;;;;;5106884;28;20604;-86
2022/06/10 01:09:55;;;;;;;1.23;1.13;;;11.80;99.90;;;;;;5112800;27;20615;-87
2022/06/10 01:12:45;;;;;;;1.10;1.00;;;11.80;99.90;;;;;;5127893;27;20963;-86
2022/06/10 01:15:33;;;;;;;1.37;1.20;;;11.60;99.90;;;;;;5127356;27;20733;-85
2022/06/10 01:18:27;;;;;;;1.97;1.20;;;11.40;99.90;;;;;;5127310;27;20618;-85
2022/06/10 01:21:15;;;;;;;1.00;1.00;;;11.50;99.90;;;;;;5120344;27;20638;-86
2022/06/10 01:24:34;;;;;;;0.97;0.97;;;11.60;99.90;;;;;;5127676;27;21067;-86
2022/06/10 01:30:17;;;;;;;0.67;0.67;;;11.50;99.90;;;;;;5084251;28;20714;-86
2022/06/10 01:32:59;;;;;;;0.83;0.83;;;11.30;99.90;;;;;;5118166;27;20757;-87
2022/06/10 01:35:38;;;;;;;1.00;0.90;;;11.30;99.90;;;;;;5126716;27;20689;-86
2022/06/10 01:38:14;;;;;;;1.30;1.20;;;11.30;99.90;;;;;;5127495;28;22643;-87
2022/06/10 01:40:52;;;;;;;1.87;1.33;;;11.30;99.90;;;;;;5127632;27;20626;-86
2022/06/10 01:43:29;;;;;;;1.20;0.93;;;11.30;99.90;;;;;;5127441;27;20623;-86
2022/06/10 01:46:06;;;;;;;4.63;1.20;;;11.30;99.90;;;;;;5127336;27;20652;-85
2022/06/10 01:48:41;;;;;;;1.60;1.50;;;11.30;99.90;;;;;;5127801;27;20725;-87
2022/06/10 01:51:14;;;;;;;0.70;0.70;;;11.20;99.90;;;;;;5127476;27;21245;-86
2022/06/10 01:53:49;;;;;;;0.90;0.90;;;11.20;99.90;;;;;;5127630;27;20637;-87
2022/06/10 01:56:24;;;;;;;1.30;1.00;;;11.20;99.90;;;;;;5126924;27;20668;-87
2022/06/10 01:58:57;;;;;;;1.33;1.23;;;11.30;99.90;;;;;;5127574;28;20616;-88
2022/06/10 02:01:30;;;;;;;3.40;1.80;;;11.40;99.90;;;;;;5128158;27;20682;-87
2022/06/10 02:04:03;;;;;;;1.23;1.13;;;11.20;99.90;;;;;;5121846;27;20630;-85
2022/06/10 02:06:35;;;;;;;1.20;1.10;;;11.00;99.90;;;;;;5127572;28;20649;-85
2022/06/10 02:09:06;;;;;;;1.03;1.03;;;11.10;99.90;;;;;;5126709;27;20723;-86
2022/06/10 02:11:36;;;;;;;0.93;0.93;;;11.20;99.90;;;;;;5130156;27;21232;-86
2022/06/10 02:14:08;;;;;;;1.00;1.00;;;11.10;99.90;;;;;;5127055;27;21001;-85
2022/06/10 02:16:38;;;;;;;1.63;1.10;;;11.10;99.90;;;;;;5131685;27;20607;-86
2022/06/10 02:19:14;;;;;;;0.80;0.80;;;11.20;99.90;;;;;;5129986;27;20627;-85
2022/06/10 02:21:46;;;;;;;1.23;1.13;;;11.20;99.90;;;;;;5131900;27;20615;-85
2022/06/10 02:24:22;;;;;;;0.80;0.80;;;11.00;99.90;;;;;;5111431;28;20639;-86
2022/06/10 02:26:51;;;;;;;1.23;1.13;;;11.10;99.90;;;;;;5119343;27;20756;-86
2022/06/10 02:29:22;;;;;;;1.27;1.17;;;11.10;99.90;;;;;;5131913;27;20649;-86
2022/06/10 02:31:53;;;;;;;1.97;1.53;;;11.10;99.90;;;;;;5131481;27;21187;-83
2022/06/10 02:34:22;;;;;;;1.40;1.10;;;11.10;99.90;;;;;;5131703;27;20629;-87
2022/06/10 02:36:54;;;;;;;1.13;1.13;;;11.10;99.90;;;;;;5130390;27;20750;-86
2022/06/10 02:39:26;;;;;;;1.47;1.37;;;11.10;99.90;;;;;;5130596;27;20642;-86
2022/06/10 02:42:02;;;;;;;1.13;0.80;;;11.00;99.90;;;;;;5131748;27;20613;-86
2022/06/10 02:44:37;;;;;;;0.80;0.80;;;10.90;99.90;;;;;;5130750;27;20629;-87
2022/06/10 02:47:18;;;;;;;1.53;1.30;;;10.90;99.90;;;;;;5131134;27;20982;-86
2022/06/10 02:49:47;;;;;;;1.03;0.93;;;10.90;99.90;;;;;;5110500;28;20811;-85
2022/06/10 02:52:15;;;;;;;1.30;1.10;;;11.00;99.90;;;;;;5119721;27;20617;-85
2022/06/10 02:54:44;;;;;;;1.43;0.90;;;11.00;99.90;;;;;;5110728;28;21180;-85
2022/06/10 02:57:14;;;;;;;1.20;1.10;;;10.90;99.90;;;;;;5115066;27;20620;-87
2022/06/10 03:02:38;;;;;;;1.00;0.80;;;10.80;99.90;;;;;;5130372;27;20678;-86
2022/06/10 03:05:19;;;;;;;1.70;1.60;;;10.80;99.90;;;;;;5130329;27;20664;-86
2022/06/10 03:07:57;;;;;;;1.10;1.00;;;10.90;99.90;;;;;;5130421;27;20673;-85
2022/06/10 03:10:32;;;;;;;1.67;1.50;;;10.90;99.90;;;;;;5129905;27;20656;-85
2022/06/10 03:13:28;;;;;;;1.57;1.20;;;11.00;99.90;;;;;;5130852;27;20614;-86
2022/06/10 03:16:26;;;;;;;1.30;1.13;;;11.10;99.90;;;;;;5128390;27;21197;-85
2022/06/10 03:19:03;;;;;;;1.00;0.97;;;11.20;99.90;;;;;;5108519;28;20638;-86
2022/06/10 03:21:42;;;;;;;1.00;1.00;;;11.20;99.90;;;;;;5130436;27;20625;-86
2022/06/10 03:24:18;;;;;;;1.73;1.63;;;11.10;99.90;;;;;;5130735;27;20630;-85
2022/06/10 03:26:52;;;;;;;0.70;0.70;;;11.30;99.90;;;;;;5110843;27;21311;-86
2022/06/10 03:29:28;;;;;;;1.40;1.30;;;11.10;99.90;;;;;;5113937;27;21263;-86
2022/06/10 03:31:59;;;;;;;3.70;1.23;;;11.20;99.90;;;;;;5129995;27;20697;-86
2022/06/10 03:34:32;;;;;;;1.97;1.87;;;11.30;99.90;;;;;;5130258;27;20606;-87
2022/06/10 03:37:02;;;;;;;1.80;1.60;;;11.10;99.90;;;;;;5129683;27;20722;-86
2022/06/10 03:39:30;;;;;;;0.80;0.73;;;10.90;99.90;;;;;;5129864;27;20626;-85
2022/06/10 03:42:00;;;;;;;1.33;1.20;;;10.90;99.90;;;;;;5129738;27;20636;-86
2022/06/10 03:44:29;;;;;;;1.03;0.87;;;10.70;99.90;;;;;;5128827;27;20653;-86
2022/06/10 03:46:57;;;;;;;1.53;1.43;;;10.90;99.90;;;;;;5129607;27;20665;-86
2022/06/10 03:49:30;;;;;;;0.90;0.90;;;10.90;99.90;;;;;;5129476;27;20622;-87
2022/06/10 03:51:57;;;;;;;1.20;1.13;;;10.90;99.90;;;;;;5130226;27;20629;-87
2022/06/10 03:54:26;;;;;;;1.17;0.97;;;10.90;99.90;;;;;;5129238;27;20730;-86
2022/06/10 03:56:53;;;;;;;1.00;0.97;;;10.90;99.90;;;;;;5129148;27;20639;-86
2022/06/10 03:59:21;;;;;;;1.17;1.10;;;10.90;99.90;;;;;;5129579;27;20708;-86
2022/06/10 04:01:47;;;;;;;1.00;1.00;;;10.80;99.90;;;;;;5129899;27;20627;-85
2022/06/10 04:04:14;;;;;;;1.43;1.20;;;10.90;99.90;;;;;;5129184;27;20614;-85
2022/06/10 04:06:41;;;;;;;1.60;1.50;;;11.00;99.90;;;;;;5127954;27;20697;-85
2022/06/10 04:09:08;;;;;;;1.27;1.17;;;11.10;99.90;;;;;;5129724;27;20677;-85
2022/06/10 04:11:36;;;;;;;1.23;1.13;;;11.10;99.90;;;;;;5129778;27;20717;-85
2022/06/10 04:14:03;;;;;;;1.53;1.37;;;11.20;99.90;;;;;;5129306;27;20618;-86
2022/06/10 04:16:30;;;;;;;1.57;1.43;;;11.40;99.90;;;;;;5128986;27;21099;-85
2022/06/10 04:18:57;;;;;;;2.10;1.90;;;11.50;99.90;;;;;;5129601;27;21179;-85
2022/06/10 04:21:24;;;;;;;1.17;1.07;;;11.60;99.90;;;;;;5128853;27;20695;-87
2022/06/10 04:23:51;;;;;;;1.20;1.10;;;11.70;99.90;;;;;;5129310;27;20807;-85
2022/06/10 04:26:18;;;;;;;1.00;1.00;;;11.80;99.90;;;;;;5128868;27;20722;-85
2022/06/10 04:28:47;;;;;;;1.80;1.17;;;11.90;99.90;;;;;;5129641;27;20614;-86
2022/06/10 04:31:14;;;;;;;1.00;1.00;;;11.90;99.90;;;;;;5129050;27;21187;-86
2022/06/10 04:33:41;;;;;;;1.10;0.93;;;11.90;99.90;;;;;;5127687;27;20623;-86
2022/06/10 04:36:11;;;;;;;1.60;1.40;;;12.10;99.90;;;;;;5128889;27;20630;-85
2022/06/10 04:38:37;;;;;;;1.57;1.13;;;12.10;99.90;;;;;;5129206;27;20640;-86
2022/06/10 04:41:06;;;;;;;1.13;0.97;;;12.20;99.90;;;;;;5129062;27;20683;-87
2022/06/10 04:43:33;;;;;;;0.60;0.50;;;12.30;99.90;;;;;;5120803;27;20622;-86
2022/06/10 04:46:05;;;;;;;1.50;1.40;;;12.30;99.90;;;;;;5127619;27;20662;-83
2022/06/10 04:48:32;;;;;;;3.03;1.17;;;12.40;99.90;;;;;;5127285;27;20657;-86
2022/06/10 04:51:00;;;;;;;0.90;0.90;;;12.40;99.90;;;;;;5128629;27;21241;-85
2022/06/10 04:53:27;;;;;;;1.23;1.13;;;12.50;99.90;;;;;;5128896;27;20671;-86
2022/06/10 04:55:54;;;;;;;1.33;0.97;;;12.70;99.90;;;;;;5128115;27;20611;-84
2022/06/10 04:58:21;;;;;;;1.13;1.03;;;12.80;99.90;;;;;;5128296;27;20668;-86
2022/06/10 05:00:49;;;;;;;1.23;1.13;;;12.60;99.90;;;;;;5128331;27;20992;-86
2022/06/10 05:03:18;;;;;;;1.10;1.10;;;12.50;99.90;;;;;;5129206;27;20631;-84
2022/06/10 05:05:45;;;;;;;0.90;0.77;;;12.50;99.90;;;;;;5128556;27;20973;-86
2022/06/10 05:08:14;;;;;;;0.60;0.60;;;12.70;99.90;;;;;;5129558;27;20718;-86
2022/06/10 05:10:42;;;;;;;2.30;1.13;;;12.70;99.90;;;;;;5129727;27;20647;-86
2022/06/10 05:13:09;;;;;;;3.13;1.60;;;12.80;99.90;;;;;;5129107;27;20669;-87
2022/06/10 05:15:36;;;;;;;0.70;0.50;;;12.80;99.90;;;;;;5130094;27;20619;-86
2022/06/10 05:18:04;;;;;;;0.87;0.87;;;12.70;99.90;;;;;;5130123;27;20626;-87
2022/06/10 05:20:43;;;;;;;0.83;0.83;;;12.90;99.90;;;;;;5130885;27;20697;-86
2022/06/10 05:23:11;;;;;;;1.00;0.90;;;13.00;99.90;;;;;;5130204;27;20700;-86
2022/06/10 05:25:39;;;;;;;4.03;0.93;;;13.10;99.90;;;;;;5129972;27;20619;-87
2022/06/10 05:28:08;;;;;;;1.00;0.90;;;13.10;99.90;;;;;;5129836;27;20666;-86
2022/06/10 05:30:36;;;;;;;1.30;1.03;;;13.30;99.90;;;;;;5130959;28;20711;-87
2022/06/10 05:33:04;;;;;;;1.03;0.97;;;13.30;99.90;;;;;;5128874;27;20714;-85
2022/06/10 05:35:33;;;;;;;1.03;1.03;;;13.30;99.90;;;;;;5128695;28;20623;-86
2022/06/10 05:38:01;;;;;;;2.23;1.23;;;13.50;99.90;;;;;;5129615;27;20623;-87
2022/06/10 05:40:30;;;;;;;1.13;0.93;;;13.80;99.90;;;;;;5128924;27;20676;-88
2022/06/10 05:42:58;;;;;;;1.80;1.57;;;13.90;99.90;;;;;;5126003;27;21043;-87
2022/06/10 05:45:28;;;;;;;0.93;0.93;;;13.90;99.60;;;;;;5128795;27;20649;-87
2022/06/10 05:48:00;;;;;;;2.17;1.10;;;13.80;99.90;;;;;;5132179;27;20658;-87
2022/06/10 05:50:29;;;;;;;1.47;1.37;;;13.90;99.90;;;;;;5133878;27;20619;-86
2022/06/10 05:52:57;;;;;;;1.57;1.40;;;14.00;99.60;;;;;;5133831;27;20711;-87
2022/06/10 05:55:27;;;;;;;2.33;1.10;;;14.10;99.80;;;;;;5133376;27;20610;-86
2022/06/10 05:57:54;;;;;;;0.80;0.80;;;14.20;99.90;;;;;;5133555;27;20618;-86
2022/06/10 06:00:23;;;;;;;0.80;0.77;;;14.20;99.90;;;;;;5133791;27;20657;-86
2022/06/10 06:02:51;;;;;;;0.80;0.80;;;14.30;99.90;;;;;;5133416;27;20618;-86
2022/06/10 06:05:20;;;;;;;1.50;1.40;;;14.40;99.90;;;;;;5134418;27;20615;-87
2022/06/10 06:07:48;;;;;;;1.10;1.10;;;14.50;99.90;;;;;;5133213;27;20665;-87
2022/06/10 06:10:20;;;;;;;1.20;1.10;;;14.80;99.30;;;;;;5133856;27;20615;-86
2022/06/10 06:12:48;;;;;;;1.90;1.00;;;14.70;99.20;;;;;;5132857;27;20618;-86
2022/06/10 06:15:16;;;;;;;1.20;0.80;;;14.70;99.30;;;;;;5134071;27;20725;-87
2022/06/10 06:17:43;;;;;;;1.33;1.10;;;14.80;99.10;;;;;;5132761;27;20700;-87
2022/06/10 06:20:13;;;;;;;1.03;1.03;;;14.90;99.20;;;;;;5133132;27;20648;-87
2022/06/10 06:22:40;;;;;;;1.57;1.47;;;15.00;98.80;;;;;;5132769;27;20676;-86
2022/06/10 06:25:08;;;;;;;0.90;0.90;;;15.00;98.80;;;;;;5131478;27;20627;-86
2022/06/10 06:27:37;;;;;;;1.13;1.03;;;15.00;98.60;;;;;;5131929;27;20682;-86
2022/06/10 06:30:05;;;;;;;0.93;0.87;;;15.00;98.30;;;;;;5134340;27;21167;-88
2022/06/10 06:32:31;;;;;;;1.30;1.20;;;15.00;98.20;;;;;;5133316;27;20614;-85
2022/06/10 06:34:58;;;;;;;0.93;0.90;;;15.20;98.70;;;;;;5133827;27;20610;-87
2022/06/10 06:37:25;;;;;;;1.57;1.47;;;15.50;98.90;;;;;;5133198;27;20611;-87
2022/06/10 06:39:52;;;;;;;0.83;0.83;;;15.60;98.10;;;;;;5133930;27;20615;-87
2022/06/10 06:42:19;;;;;;;1.40;1.30;;;15.70;98.00;;;;;;5133003;27;20731;-87
2022/06/10 06:44:47;;;;;;;1.10;1.10;;;15.70;98.10;;;;;;5116818;27;20619;-84
2022/06/10 06:47:15;;;;;;;0.90;0.90;;;15.80;97.90;;;;;;5127895;27;20742;-86
2022/06/10 06:49:42;;;;;;;0.90;0.90;;;15.60;96.90;;;;;;5133582;27;20599;-87
2022/06/10 06:52:10;;;;;;;0.97;0.97;;;15.60;97.70;;;;;;5132871;27;21160;-86
2022/06/10 06:54:37;;;;;;;1.53;1.20;;;15.60;97.50;;;;;;5132158;27;20607;-87
2022/06/10 06:57:05;;;;;;;1.47;1.00;;;15.70;97.60;;;;;;5129844;27;20607;-88
2022/06/10 06:59:33;;;;;;;1.00;0.90;;;15.80;97.80;;;;;;5132435;27;21085;-87
2022/06/10 07:02:01;;;;;;;1.50;1.40;;;16.10;97.40;;;;;;5132050;27;20626;-87
2022/06/10 07:04:28;;;;;;;0.60;0.60;;;16.20;96.50;;;;;;5132337;27;20656;-87
2022/06/10 07:06:55;;;;;;;1.67;1.17;;;16.40;96.00;;;;;;5131142;27;20749;-84
2022/06/10 07:09:22;;;;;;;1.23;1.13;;;16.60;95.60;;;;;;5133402;27;20705;-86
2022/06/10 07:11:49;;;;;;;1.10;1.07;;;16.50;95.70;;;;;;5132294;27;20626;-87
2022/06/10 07:14:16;;;;;;;1.73;1.17;;;16.60;95.30;;;;;;5130248;27;20626;-87
2022/06/10 07:16:43;;;;;;;0.70;0.70;;;16.60;94.10;;;;;;5130121;27;20618;-88
2022/06/10 07:19:12;;;;;;;1.00;0.70;;;16.60;94.70;;;;;;5132085;27;20619;-85
2022/06/10 07:21:39;;;;;;;0.80;0.80;;;16.90;95.10;;;;;;5131245;27;20714;-86
2022/06/10 07:24:07;;;;;;;1.03;0.93;;;17.10;94.30;;;;;;5132118;27;20638;-89
2022/06/10 07:26:34;;;;;;;1.20;1.10;;;17.10;94.00;;;;;;5131518;27;21188;-87
2022/06/10 07:29:00;;;;;;;0.73;0.73;;;17.10;95.20;;;;;;5131828;27;20658;-86
2022/06/10 07:31:27;;;;;;;1.17;1.07;;;17.30;95.00;;;;;;5131031;27;20618;-87
2022/06/10 07:33:54;;;;;;;1.30;0.93;;;17.30;94.10;;;;;;5131877;27;20674;-86
2022/06/10 07:36:23;;;;;;;1.63;1.53;;;17.30;93.30;;;;;;5129954;27;20619;-89
2022/06/10 07:38:50;;;;;;;0.70;0.70;;;17.30;92.80;;;;;;5132466;27;20649;-86
2022/06/10 07:46:48;;;;;;;1.77;1.30;;;17.40;93.00;;;;;;5116967;27;20970;-87
2022/06/10 07:49:16;;;;;;;2.20;0.90;;;17.60;92.00;;;;;;5131071;27;21215;-86
2022/06/10 07:51:44;;;;;;;1.20;1.00;;;17.70;92.10;;;;;;5130271;27;20658;-88
2022/06/10 07:54:11;;;;;;;0.77;0.60;;;18.00;92.10;;;;;;5131296;27;20619;-89
2022/06/10 07:56:39;;;;;;;1.30;0.90;;;17.50;91.90;;;;;;5132111;27;20615;-89
2022/06/10 07:59:07;;;;;;;2.90;1.30;;;17.40;92.70;;;;;;5132110;27;20655;-87
2022/06/10 08:01:34;;;;;;;1.93;0.90;;;17.70;92.40;;;;;;5132410;27;20615;-89
2022/06/10 08:04:02;;;;;;;1.00;0.80;;;17.70;91.70;;;;;;5132437;27;20619;-88
2022/06/10 08:06:30;;;;;;;1.67;1.57;;;17.70;92.00;;;;;;5128369;27;20603;-88
2022/06/10 08:08:59;;;;;;;2.73;2.53;;;18.00;91.80;;;;;;5131688;27;21356;-88
2022/06/10 08:11:25;;;;;;;1.03;1.03;;;17.90;90.80;;;;;;5132694;27;20667;-87
2022/06/10 08:13:53;;;;;;;1.23;1.13;;;17.80;90.60;;;;;;5131994;27;21192;-88
2022/06/10 08:16:20;;;;;;;0.60;0.60;;;18.10;91.20;;;;;;5130431;27;20631;-88
2022/06/10 08:18:47;;;;;;;1.40;1.30;;;18.20;91.60;;;;;;5130932;27;20691;-87
2022/06/10 08:24:01;;;;;;;0.60;0.60;;;18.60;91.00;;;;;;5130326;27;21038;-87
2022/06/10 08:26:29;;;;;;;2.23;1.13;;;18.70;91.10;;;;;;5130301;27;20619;-89
2022/06/10 08:28:58;;;;;;;0.67;0.67;;;18.70;90.30;;;;;;5131623;27;20734;-88
2022/06/10 08:31:25;;;;;;;1.50;1.40;;;18.90;90.20;;;;;;5129568;27;20615;-86
2022/06/10 08:33:52;;;;;;;1.57;1.20;;;18.80;89.20;;;;;;5130795;27;20703;-90
2022/06/10 08:36:19;;;;;;;1.60;0.93;;;18.60;87.90;;;;;;5131507;27;20618;-88
2022/06/10 08:38:46;;;;;;;0.70;0.70;;;18.60;88.60;;;;;;5131168;27;20607;-88
2022/06/10 08:41:25;;;;;;;1.20;1.13;;;18.70;86.40;;;;;;5131847;27;20602;-88
2022/06/10 08:43:59;;;;;;;1.40;1.10;;;18.80;88.20;;;;;;5131908;27;20646;-88
2022/06/10 08:46:49;;;;;;;2.17;1.37;;;19.00;88.70;;;;;;5130779;27;20619;-88
2022/06/10 08:49:41;;;;;;;1.10;1.10;;;19.40;82.60;;;;;;5108610;27;20679;-88
2022/06/10 08:52:14;;;;;;;0.73;0.73;;;19.70;83.50;;;;;;5127170;27;21192;-90
2022/06/10 08:54:48;;;;;;;1.10;1.10;;;19.70;80.60;;;;;;5130053;27;20627;-86
2022/06/10 08:57:23;;;;;;;0.70;0.70;;;19.70;82.90;;;;;;5128586;27;20645;-87
2022/06/10 08:59:51;;;;;;;1.40;1.30;;;20.00;81.50;;;;;;5130943;27;20682;-88
2022/06/10 09:02:27;;;;;;;1.23;1.07;;;20.00;80.90;;;;;;5130721;27;20618;-88
2022/06/10 09:04:58;;;;;;;1.17;1.07;;;20.00;81.60;;;;;;5131342;27;20605;-87
2022/06/10 09:07:29;;;;;;;0.93;0.93;;;20.20;81.90;;;;;;5128563;27;20702;-87
2022/06/10 09:09:58;;;;;;;9.40;1.20;;;20.20;79.10;;;;;;5130166;27;20692;-89
2022/06/10 09:12:39;;;;;;;1.03;0.93;;;20.10;81.70;;;;;;5131674;27;21168;-87
2022/06/10 09:15:08;;;;;;;0.90;0.90;;;20.10;80.40;;;;;;5130260;27;21005;-88
2022/06/10 09:17:40;;;;;;;1.23;1.03;;;20.20;79.50;;;;;;5129814;27;20721;-88
2022/06/10 09:20:15;;;;;;;1.10;1.00;;;20.30;81.70;;;;;;5129268;27;21018;-88
2022/06/10 09:22:49;;;;;;;1.20;1.10;;;20.50;81.70;;;;;;5130609;27;20642;-88
2022/06/10 09:25:22;;;;;;;1.70;1.20;;;20.50;78.50;;;;;;5130624;27;20659;-88
2022/06/10 09:27:55;;;;;;;1.00;0.70;;;20.00;79.50;;;;;;5130789;27;21896;-88
2022/06/10 09:30:27;;;;;;;0.70;0.70;;;19.50;82.10;;;;;;5131096;27;20631;-89
2022/06/10 09:33:00;;;;;;;1.30;0.97;;;19.60;84.60;;;;;;5130542;27;20716;-87
2022/06/10 09:35:32;;;;;;;1.17;0.93;;;20.00;82.70;;;;;;5129812;27;20662;-87
2022/06/10 09:38:07;;;;;;;1.53;1.00;;;20.40;80.00;;;;;;5129089;27;20662;-87
2022/06/10 09:40:37;;;;;;;1.07;1.07;;;20.80;79.80;;;;;;5130726;27;20622;-87
2022/06/10 09:43:42;;;;;;;2.77;1.40;;;20.90;80.30;;;;;;5131665;27;20611;-87
2022/06/10 09:46:24;;;;;;;1.17;1.07;;;20.70;80.60;;;;;;5118475;28;21272;-87
2022/06/10 09:49:31;;;;;;;0.90;0.90;;;20.80;81.20;;;;;;5130648;27;21511;-87
2022/06/10 09:52:10;;;;;;;1.47;0.90;;;21.00;78.40;;;;;;5047284;28;20626;-87
2022/06/10 09:54:57;;;;;;;1.23;1.10;;;21.20;75.30;;;;;;5045973;28;21028;-87
2022/06/10 09:57:48;;;;;;;0.77;0.77;;;21.40;78.20;;;;;;5101250;28;20629;-85
2022/06/10 10:00:21;;;;;;;1.80;1.00;;;21.70;74.20;;;;;;5129227;27;21203;-87
2022/06/10 10:03:05;;;;;;;2.00;0.83;;;21.90;71.60;;;;;;5129472;27;20642;-87
2022/06/10 10:05:43;;;;;;;1.03;1.03;;;22.10;70.30;;;;;;5128156;27;21045;-87
2022/06/10 10:08:19;;;;;;;0.90;0.90;;;22.30;67.40;;;;;;5128143;27;20765;-87
2022/06/10 10:10:50;;;;;;;1.10;0.87;;;22.70;67.20;;;;;;5128652;27;20637;-87
2022/06/10 10:13:35;;;;;;;0.83;0.80;;;22.80;69.30;;;;;;5127777;27;20718;-88
2022/06/10 10:16:16;;;;;;;1.10;1.00;;;22.60;68.50;;;;;;5126566;27;20987;-87
2022/06/10 10:18:55;;;;;;;1.00;0.90;;;22.20;65.30;;;;;;5128771;27;20683;-86
2022/06/10 10:21:27;;;;;;;0.90;0.87;;;22.00;69.90;;;;;;5127884;27;20704;-88
2022/06/10 10:23:58;;;;;;;1.27;1.17;;;21.90;69.40;;;;;;5128368;27;20609;-88
2022/06/10 10:26:30;;;;;;;0.87;0.83;;;21.70;72.70;;;;;;5127433;28;20657;-87
2022/06/10 10:29:01;;;;;;;1.67;1.57;;;22.20;75.00;;;;;;5128621;27;20774;-87
2022/06/10 10:31:33;;;;;;;1.10;1.10;;;22.50;70.30;;;;;;5128783;27;20599;-87
2022/06/10 10:34:04;;;;;;;1.27;1.17;;;22.80;74.40;;;;;;5129038;27;20981;-87
2022/06/10 10:36:45;;;;;;;1.40;1.30;;;23.20;73.70;;;;;;5132117;27;20644;-87
2022/06/10 10:39:25;;;;;;;1.10;1.00;;;23.50;71.60;;;;;;5132979;27;21237;-87
2022/06/10 10:41:56;;;;;;;2.43;1.10;;;23.70;69.20;;;;;;5132055;27;20626;-86
2022/06/10 10:44:39;;;;;;;0.80;0.80;;;23.40;67.70;;;;;;5121652;27;20607;-87
2022/06/10 10:47:21;;;;;;;2.33;1.37;;;23.00;69.70;;;;;;5131274;27;20618;-87
2022/06/10 10:49:52;;;;;;;1.40;1.30;;;22.70;70.60;;;;;;5132548;27;21026;-88
2022/06/10 10:52:24;;;;;;;0.77;0.77;;;22.30;72.30;;;;;;5133153;27;21014;-88
2022/06/10 10:54:56;;;;;;;1.33;1.00;;;22.10;71.10;;;;;;5132626;27;20663;-88
2022/06/10 10:57:29;;;;;;;1.00;1.00;;;21.80;72.30;;;;;;5132579;27;20683;-88
2022/06/10 11:00:07;;;;;;;0.80;0.80;;;21.60;72.20;;;;;;5133491;27;20660;-88
2022/06/10 11:02:39;;;;;;;0.87;0.87;;;21.40;73.20;;;;;;5122555;27;20706;-88
2022/06/10 11:05:22;;;;;;;0.97;0.97;;;21.20;72.10;;;;;;5136938;27;20634;-88
2022/06/10 11:08:21;;;;;;;1.27;1.03;;;20.80;73.10;;;;;;5131700;27;20622;-88
2022/06/10 11:11:05;;;;;;;1.00;1.00;;;20.70;67.60;;;;;;5132187;27;21091;-88
2022/06/10 11:13:44;;;;;;;1.80;1.50;;;21.10;69.20;;;;;;5131482;27;20622;-86
2022/06/10 11:16:28;;;;;;;1.53;1.00;;;22.20;70.70;;;;;;5120644;27;20983;-89
2022/06/10 11:19:07;;;;;;;1.13;1.10;;;22.40;64.40;;;;;;5131930;27;20626;-88
2022/06/10 11:21:50;;;;;;;1.10;0.83;;;22.10;68.60;;;;;;5131712;27;20630;-88
2022/06/10 11:24:19;;;;;;;1.50;1.40;;;21.90;71.30;;;;;;5115217;27;21014;-89
2022/06/10 11:26:50;;;;;;;1.47;1.27;;;21.90;72.60;;;;;;5131677;27;20625;-88
2022/06/10 11:29:17;;;;;;;1.10;1.00;;;22.40;72.80;;;;;;5131465;27;20689;-89
2022/06/10 11:31:47;;;;;;;1.63;0.90;;;22.90;71.80;;;;;;5132356;27;21227;-89
2022/06/10 11:34:20;;;;;;;1.00;0.90;;;23.20;68.80;;;;;;5132639;27;20709;-89
2022/06/10 11:36:50;;;;;;;1.30;1.20;;;22.80;67.20;;;;;;5130172;27;20670;-88
2022/06/10 11:39:20;;;;;;;1.00;0.97;;;23.20;67.40;;;;;;5133765;27;21007;-88
2022/06/10 11:42:08;;;;;;;1.33;1.23;;;23.00;62.10;;;;;;5131779;27;20607;-88
2022/06/10 11:44:40;;;;;;;1.13;1.13;;;22.90;62.70;;;;;;5121977;27;20714;-89
2022/06/10 11:47:14;;;;;;;1.20;1.00;;;22.50;65.90;;;;;;5121687;27;20781;-88
2022/06/10 11:49:51;;;;;;;0.90;0.90;;;21.70;65.50;;;;;;5132449;27;21271;-88
2022/06/10 11:52:26;;;;;;;0.57;0.57;;;21.70;67.20;;;;;;5132352;27;20622;-90
2022/06/10 11:55:03;;;;;;;1.00;0.97;;;21.30;65.50;;;;;;5131658;27;20622;-89
2022/06/10 12:00:25;;;;;;;0.80;0.80;;;21.30;72.30;;;;;;5132485;27;20700;-89
2022/06/10 12:03:03;;;;;;;1.10;0.80;;;21.40;72.40;;;;;;5131706;27;20619;-86
2022/06/10 12:05:42;;;;;;;0.80;0.80;;;21.30;68.30;;;;;;5131640;27;20646;-88
2022/06/10 12:08:18;;;;;;;1.23;1.13;;;22.50;68.40;;;;;;5130013;27;21148;-90
2022/06/10 12:10:55;;;;;;;0.80;0.80;;;23.00;64.40;;;;;;5133039;27;21277;-89
2022/06/10 12:13:24;;;;;;;0.93;0.93;;;24.00;66.10;;;;;;5120477;27;20606;-89
2022/06/10 12:15:55;;;;;;;2.43;1.27;;;24.40;61.10;;;;;;5131896;27;20607;-89
2022/06/10 12:18:24;;;;;;;1.50;0.80;;;25.00;64.90;;;;;;5111344;28;20612;-89
2022/06/10 12:20:57;;;;;;;1.07;0.70;;;26.60;60.20;;;;;;5128480;27;20679;-88
2022/06/10 12:23:27;;;;;;;1.20;1.10;;;28.00;56.90;;;;;;5132021;27;20625;-88
2022/06/10 12:26:01;;;;;;;0.70;0.70;;;28.90;55.10;;;;;;5120078;27;20674;-89
2022/06/10 12:28:36;;;;;;;1.17;1.00;;;29.20;50.50;;;;;;5131031;27;20623;-88
2022/06/10 12:31:13;;;;;;;1.23;0.90;;;29.00;50.10;;;;;;5111484;28;21102;-87
2022/06/10 12:33:46;;;;;;;0.90;0.90;;;28.90;49.40;;;;;;5121376;27;20674;-88
2022/06/10 12:36:20;;;;;;;1.10;0.90;;;28.40;48.30;;;;;;5131624;27;20614;-89
2022/06/10 12:38:52;;;;;;;1.80;1.47;;;29.20;51.00;;;;;;5130966;27;20670;-89
2022/06/10 12:41:23;;;;;;;0.90;0.90;;;29.30;50.20;;;;;;5131164;27;21330;-89
2022/06/10 12:43:57;;;;;;;0.70;0.70;;;28.50;51.40;;;;;;5132300;27;20629;-89
2022/06/10 12:46:41;;;;;;;0.80;0.80;;;27.80;51.80;;;;;;5130472;27;20623;-90
2022/06/10 12:49:16;;;;;;;1.40;1.30;;;26.50;49.80;;;;;;5116098;27;20641;-88
2022/06/10 12:51:53;;;;;;;1.40;1.30;;;26.10;51.60;;;;;;5131199;27;20664;-86
2022/06/10 12:54:32;;;;;;;1.23;0.90;;;25.60;53.00;;;;;;5130415;27;20622;-89
2022/06/10 12:57:36;;;;;;;1.30;1.20;;;25.20;55.50;;;;;;5131190;27;20630;-88
2022/06/10 13:00:35;;;;;;;1.10;1.00;;;25.10;52.20;;;;;;5065505;28;20696;-86
2022/06/10 13:03:25;;;;;;;1.43;1.00;;;25.00;51.80;;;;;;5066808;28;21254;-86
2022/06/10 13:05:53;;;;;;;2.70;1.10;;;26.30;52.80;;;;;;5120584;27;20627;-88
2022/06/10 13:08:41;;;;;;;0.60;0.60;;;28.00;51.10;;;;;;5130414;27;21262;-85
2022/06/10 13:11:10;;;;;;;0.53;0.53;;;29.60;50.10;;;;;;5129998;27;20623;-88
2022/06/10 13:13:38;;;;;;;0.63;0.63;;;30.10;49.30;;;;;;5130599;27;20978;-88
2022/06/10 13:16:40;;;;;;;1.10;1.03;;;30.80;49.20;;;;;;5130911;27;20619;-87
2022/06/10 13:19:31;;;;;;;1.47;1.37;;;30.80;43.80;;;;;;5128334;27;21455;-88
2022/06/10 13:21:59;;;;;;;0.87;0.87;;;32.20;43.20;;;;;;5129064;27;21160;-89
2022/06/10 13:24:27;;;;;;;1.20;1.10;;;33.10;44.00;;;;;;5116056;28;21037;-88
2022/06/10 13:26:54;;;;;;;0.90;0.80;;;33.30;41.20;;;;;;5129643;27;20692;-88
2022/06/10 13:29:22;;;;;;;0.97;0.90;;;32.10;44.40;;;;;;5129266;27;20718;-88
2022/06/10 13:31:52;;;;;;;1.03;0.80;;;32.10;42.50;;;;;;5129797;27;20725;-88
2022/06/10 13:34:24;;;;;;;0.80;0.80;;;31.60;43.60;;;;;;5129244;27;20717;-88